This is the latest recevied weather packets stored in our database for station/object KB1YTR-1. If no packets are shown the sender has not sent any weather packets the latest 10 day(s).
| Time | Temp. | Humidity | Pressure | Rain* | Wind** | Luminosity | Snow |
|---|---|---|---|---|---|---|---|
| 1787985815 | 15° C | 93% | 1015.9 hPa | 0 mm | - | - | - |
| 1787985036 | 15.56° C | 92% | 1016.1 hPa | 0 mm | - | - | - |
| 1787984229 | 15.56° C | 91% | 1016.2 hPa | 0 mm | - | - | - |
| 1787983366 | 15.56° C | 91% | 1016 hPa | 0 mm | - | - | - |
| 1787982585 | 15.56° C | 90% | 1016.3 hPa | 0 mm | - | - | - |
| 1787981759 | 15.56° C | 91% | 1016.1 hPa | 0 mm | - | - | - |
| 1787981030 | 15.56° C | 90% | 1016.3 hPa | 0 mm | - | - | - |
| 1787980151 | 15.56° C | 90% | 1016.1 hPa | 0 mm | - | - | - |
| 1787979255 | 15.56° C | 89% | 1016.2 hPa | 0 mm | - | - | - |
| 1787978436 | 15.56° C | 87% | 1016.3 hPa | 0 mm | - | - | - |
| 1787977560 | 16.11° C | 85% | 1016.3 hPa | 0 mm | - | - | - |
| 1787976795 | 16.11° C | 83% | 1016.2 hPa | 0 mm | - | - | - |
| 1787975935 | 16.11° C | 80% | 1016.7 hPa | 0 mm | - | - | - |
| 1787975100 | 16.11° C | 76% | 1016.7 hPa | 0 mm | - | - | - |
| 1787974271 | 16.11° C | 74% | 1016.2 hPa | 0 mm | - | - | - |
| 1787973496 | 16.67° C | 73% | 1016.5 hPa | 0 mm | - | - | - |
| 1787972695 | 16.11° C | 76% | 1016.5 hPa | 0 mm | - | - | - |
| 1787971956 | 16.11° C | 76% | 1016.5 hPa | 0 mm | - | - | - |
| 1787971176 | 15.56° C | 81% | 1016.8 hPa | 0 mm | - | - | - |
| 1787970355 | 16.11° C | 79% | 1017.1 hPa | 0 mm | - | - | - |
| 1787969570 | 15.56° C | 80% | 1017 hPa | 0 mm | - | - | - |
| 1787968789 | 15.56° C | 82% | 1016.8 hPa | 0 mm | - | - | - |
| 1787968024 | 15.56° C | 84% | 1016.8 hPa | 0 mm | - | - | - |
| 1787967195 | 15.56° C | 86% | 1016.7 hPa | 0 mm | - | - | - |
| 1787966395 | 15.56° C | 85% | 1016.7 hPa | 0 mm | - | - | - |
* Rain latest hour (hover to see other rain measurements)
** Current wind speed in m/s (hover to see current wind gust speed)